Time;durP1;ratioP1;P1;durP2;ratioP2;P2;SDS_P1;SDS_P2;PMS_P1;PMS_P2;Temp;Humidity;BMP_temperature;BMP_pressure;BME280_temperature;BME280_humidity;BME280_pressure;Samples;Min_cycle;Max_cycle;Signal;HPM_P1;HPM_P2
2021/03/30 00:00:34;;;;;;;;;;;;;;;21.19;34.38;101993.59;5117178;28;771;-54
2021/03/30 00:03:00;;;;;;;;;;;;;;;21.26;34.11;102004.41;5116828;28;799;-56
2021/03/30 00:05:25;;;;;;;;;;;;;;;21.27;34.42;102006.06;5116915;28;799;-56
2021/03/30 00:07:50;;;;;;;;;;;;;;;21.23;34.36;101990.31;5116768;28;1033;-56
2021/03/30 00:10:17;;;;;;;;;;;;;;;21.26;34.38;101989.75;5116601;28;826;-56
2021/03/30 00:12:42;;;;;;;;;;;;;;;21.27;34.10;101999.72;5116782;28;779;-57
2021/03/30 00:15:08;;;;;;;;;;;;;;;21.20;34.19;101975.91;5116905;28;744;-54
2021/03/30 00:17:34;;;;;;;;;;;;;;;21.20;34.42;101989.75;5116573;28;1913;-57
2021/03/30 00:19:59;;;;;;;;;;;;;;;21.13;34.30;101989.19;5116867;28;739;-56
2021/03/30 00:22:25;;;;;;;;;;;;;;;21.16;34.28;101983.09;5116634;28;1021;-55
2021/03/30 00:24:50;;;;;;;;;;;;;;;21.13;34.50;101991.13;5116570;28;767;-58
2021/03/30 00:27:16;;;;;;;;;;;;;;;21.20;34.36;101989.75;5116657;28;756;-57
2021/03/30 00:29:46;;;;;;;;;;;;;;;21.14;34.52;101992.78;5117012;28;775;-56
2021/03/30 00:32:11;;;;;;;;;;;;;;;21.15;34.52;101987.00;5116470;28;890;-55
2021/03/30 00:34:37;;;;;;;;;;;;;;;21.31;34.27;101984.22;5116792;28;784;-56
2021/03/30 00:37:02;;;;;;;;;;;;;;;21.17;34.52;101987.53;5101209;28;1909;-56
2021/03/30 00:39:28;;;;;;;;;;;;;;;21.25;34.31;101979.78;5102158;28;1416;-56
2021/03/30 00:41:53;;;;;;;;;;;;;;;21.19;34.50;101977.00;5120592;28;847;-53
2021/03/30 00:44:19;;;;;;;;;;;;;;;21.23;34.36;101977.28;5102736;28;1255;-56
2021/03/30 00:46:44;;;;;;;;;;;;;;;21.12;34.40;101979.22;5102238;28;811;-55
2021/03/30 00:49:09;;;;;;;;;;;;;;;21.16;34.30;101982.28;5120636;28;759;-54
2021/03/30 00:51:35;;;;;;;;;;;;;;;21.20;34.28;101973.13;5101584;28;1209;-54
2021/03/30 00:54:23;;;;;;;;;;;;;;;;;;5090727;28;1200;-56
2021/03/30 00:57:07;;;;;;;;;;;;;;;21.15;34.66;101989.75;5102756;28;1914;-54
2021/03/30 00:59:32;;;;;;;;;;;;;;;21.19;34.32;101988.06;5102218;28;747;-53
2021/03/30 01:01:58;;;;;;;;;;;;;;;21.05;34.89;101981.44;5101842;28;1173;-54
2021/03/30 01:04:23;;;;;;;;;;;;;;;20.79;35.29;101981.41;5102434;28;811;-53
2021/03/30 01:06:48;;;;;;;;;;;;;;;20.74;35.34;101981.38;5119810;28;949;-53
2021/03/30 01:09:32;;;;;;;;;;;;;;;20.40;35.83;101986.47;5119824;28;795;-55
2021/03/30 01:12:07;;;;;;;;;;;;;;;20.45;35.99;101990.09;5120187;28;760;-54
2021/03/30 01:14:48;;;;;;;;;;;;;;;20.47;35.70;101987.06;5101942;28;776;-56
2021/03/30 01:17:29;;;;;;;;;;;;;;;20.54;35.53;101987.66;5119608;28;1910;-56
2021/03/30 01:19:57;;;;;;;;;;;;;;;20.58;35.56;101985.16;5119995;28;767;-56
2021/03/30 01:22:34;;;;;;;;;;;;;;;20.48;35.59;101984.03;5119440;28;994;-56
2021/03/30 01:25:00;;;;;;;;;;;;;;;20.51;35.55;101986.25;5119597;28;807;-55
2021/03/30 01:27:33;;;;;;;;;;;;;;;20.42;35.67;101979.59;5119865;28;748;-54
2021/03/30 01:29:59;;;;;;;;;;;;;;;20.50;35.66;101983.78;5119818;28;802;-56
2021/03/30 01:32:40;;;;;;;;;;;;;;;20.71;35.40;101975.56;5119559;28;760;-56
2021/03/30 01:35:13;;;;;;;;;;;;;;;20.78;35.22;101979.72;5101468;28;819;-56
2021/03/30 01:37:42;;;;;;;;;;;;;;;20.79;35.08;101972.25;5119210;28;1985;-53
2021/03/30 01:40:08;;;;;;;;;;;;;;;20.78;35.03;101985.25;5101162;28;808;-56
2021/03/30 01:42:34;;;;;;;;;;;;;;;20.91;34.77;101981.13;5119473;28;744;-56
2021/03/30 01:44:59;;;;;;;;;;;;;;;20.93;34.96;101983.63;5101343;28;827;-56
2021/03/30 01:47:25;;;;;;;;;;;;;;;20.97;34.85;101979.19;5100325;28;863;-56
2021/03/30 01:49:50;;;;;;;;;;;;;;;21.03;34.69;101972.59;5101015;28;834;-56
2021/03/30 01:52:17;;;;;;;;;;;;;;;20.94;34.94;101974.22;5118992;28;1117;-56
2021/03/30 01:54:42;;;;;;;;;;;;;;;20.99;34.87;101977.00;5101019;28;855;-57
2021/03/30 01:57:08;;;;;;;;;;;;;;;20.72;35.30;101967.00;5119036;28;1910;-55
2021/03/30 01:59:33;;;;;;;;;;;;;;;20.63;35.52;101971.38;5119190;28;843;-56
2021/03/30 02:01:59;;;;;;;;;;;;;;;20.39;35.76;101973.78;5119203;28;720;-55
2021/03/30 02:04:25;;;;;;;;;;;;;;;20.39;35.91;101959.97;5119024;28;778;-56
2021/03/30 02:06:50;;;;;;;;;;;;;;;20.34;35.96;101966.28;5100774;28;962;-56
2021/03/30 02:09:21;;;;;;;;;;;;;;;20.46;35.64;101966.88;5100912;28;767;-56
2021/03/30 02:12:00;;;;;;;;;;;;;;;20.67;35.29;101969.72;5101133;28;779;-57
2021/03/30 02:14:25;;;;;;;;;;;;;;;20.75;35.10;101968.38;5103083;28;775;-57
2021/03/30 02:16:52;;;;;;;;;;;;;;;20.65;35.31;101969.16;5118419;28;1934;-55
2021/03/30 02:19:18;;;;;;;;;;;;;;;20.79;35.09;101963.97;5100576;28;852;-53
2021/03/30 02:21:44;;;;;;;;;;;;;;;20.80;34.94;101971.16;5118710;28;957;-55
2021/03/30 02:24:10;;;;;;;;;;;;;;;20.70;35.39;101977.50;5118526;28;794;-57
2021/03/30 02:26:36;;;;;;;;;;;;;;;20.77;35.27;101977.25;5119054;28;787;-52
2021/03/30 02:29:04;;;;;;;;;;;;;;;20.76;35.15;101970.91;5100574;28;783;-55
2021/03/30 02:31:30;;;;;;;;;;;;;;;20.68;35.40;101972.25;5100562;28;815;-55
2021/03/30 02:33:56;;;;;;;;;;;;;;;20.68;35.19;101974.19;5100486;28;897;-54
2021/03/30 02:36:22;;;;;;;;;;;;;;;20.73;35.24;101982.47;5118031;28;1909;-55
2021/03/30 02:38:48;;;;;;;;;;;;;;;20.58;35.65;101982.41;5099788;28;854;-54
2021/03/30 02:41:14;;;;;;;;;;;;;;;20.62;35.34;101972.47;5100162;28;836;-55
2021/03/30 02:43:39;;;;;;;;;;;;;;;20.56;35.66;101979.09;5118327;28;759;-55
2021/03/30 02:46:05;;;;;;;;;;;;;;;20.60;35.43;101978.25;5083316;28;1107;-54
2021/03/30 02:48:30;;;;;;;;;;;;;;;20.44;35.68;101982.06;5100164;28;847;-54
2021/03/30 02:50:55;;;;;;;;;;;;;;;20.45;35.97;101983.75;5096310;28;1077;-52
2021/03/30 02:53:21;;;;;;;;;;;;;;;20.40;35.99;101975.41;5079470;28;954;-57
2021/03/30 02:55:47;;;;;;;;;;;;;;;20.41;35.92;101980.72;5079782;28;768;-56
2021/03/30 02:58:12;;;;;;;;;;;;;;;20.45;35.56;101973.50;5096278;28;1913;-55
2021/03/30 03:00:38;;;;;;;;;;;;;;;20.37;36.07;101974.06;5097318;28;795;-55
2021/03/30 03:03:04;;;;;;;;;;;;;;;20.13;36.21;101982.78;5097624;28;764;-53
2021/03/30 03:05:29;;;;;;;;;;;;;;;19.99;36.56;101976.06;5097453;28;799;-47
2021/03/30 03:07:54;;;;;;;;;;;;;;;20.26;36.03;101980.63;5096995;28;957;-51
2021/03/30 03:10:20;;;;;;;;;;;;;;;20.26;36.25;101980.63;5087015;28;792;-52
2021/03/30 03:12:45;;;;;;;;;;;;;;;20.32;35.93;101980.38;5079141;28;812;-51
2021/03/30 03:15:11;;;;;;;;;;;;;;;20.40;35.73;101989.25;5079008;28;752;-49
2021/03/30 03:17:37;;;;;;;;;;;;;;;20.34;35.88;101982.84;5097165;28;1981;-52
2021/03/30 03:20:03;;;;;;;;;;;;;;;20.22;35.99;101990.56;5097140;28;736;-50
2021/03/30 03:22:28;;;;;;;;;;;;;;;20.34;35.76;102002.19;5096659;28;1013;-53
2021/03/30 03:24:54;;;;;;;;;;;;;;;20.27;36.05;101990.56;5079002;28;894;-47
2021/03/30 03:27:19;;;;;;;;;;;;;;;20.32;35.98;102019.03;5062301;28;826;-53
2021/03/30 03:29:44;;;;;;;;;;;;;;;20.31;36.05;102011.88;5095543;28;832;-51
2021/03/30 03:32:10;;;;;;;;;;;;;;;20.15;36.25;102019.25;5095840;28;848;-46
2021/03/30 03:34:38;;;;;;;;;;;;;;;20.22;35.98;102012.66;5097037;28;752;-46
2021/03/30 03:37:04;;;;;;;;;;;;;;;20.29;35.97;102016.00;5096197;28;1984;-47
2021/03/30 03:39:29;;;;;;;;;;;;;;;20.15;36.10;102018.41;5096785;28;866;-53
2021/03/30 03:41:55;;;;;;;;;;;;;;;20.09;36.22;102025.00;5097558;28;780;-47
2021/03/30 03:44:20;;;;;;;;;;;;;;;20.18;36.07;102024.22;5096822;28;815;-47
2021/03/30 03:46:49;;;;;;;;;;;;;;;20.12;36.14;102011.50;5096652;28;759;-48
2021/03/30 03:49:15;;;;;;;;;;;;;;;20.17;36.11;102014.28;5096826;28;822;-46
2021/03/30 03:51:42;;;;;;;;;;;;;;;20.24;36.12;102019.56;5110880;28;1162;-53
2021/03/30 03:54:08;;;;;;;;;;;;;;;20.04;36.31;102017.53;5098884;28;775;-56
2021/03/30 03:56:38;;;;;;;;;;;;;;;19.94;36.64;102011.94;5099234;28;1913;-44
2021/03/30 03:59:08;;;;;;;;;;;;;;;20.12;36.14;102013.44;5098857;28;740;-56
2021/03/30 04:01:42;;;;;;;;;;;;;;;20.22;36.08;102024.53;5116803;28;815;-52
2021/03/30 04:04:08;;;;;;;;;;;;;;;20.06;36.04;102017.25;5117432;28;806;-50
2021/03/30 04:06:35;;;;;;;;;;;;;;;19.92;36.50;102012.22;5098113;28;1022;-55
2021/03/30 04:09:01;;;;;;;;;;;;;;;20.16;35.82;102015.38;5099003;28;842;-58
2021/03/30 04:11:26;;;;;;;;;;;;;;;20.13;35.91;102015.94;5082055;28;888;-62
2021/03/30 04:13:52;;;;;;;;;;;;;;;20.28;35.72;102025.38;5116714;28;731;-56
2021/03/30 04:16:17;;;;;;;;;;;;;;;20.34;35.78;102024.28;5081441;28;1921;-58
2021/03/30 04:18:43;;;;;;;;;;;;;;;20.15;35.89;102027.53;5116934;28;740;-59
2021/03/30 04:21:13;;;;;;;;;;;;;;;20.29;35.58;102025.13;5098003;28;1012;-52
2021/03/30 04:23:46;;;;;;;;;;;;;;;20.05;36.27;102027.47;5098492;28;883;-58
2021/03/30 04:26:11;;;;;;;;;;;;;;;20.13;35.88;102026.97;5116766;28;811;-56
2021/03/30 04:28:37;;;;;;;;;;;;;;;20.22;35.99;102026.47;5116753;28;759;-59
2021/03/30 04:31:02;;;;;;;;;;;;;;;20.34;35.45;102032.59;5116766;28;814;-57
2021/03/30 04:33:28;;;;;;;;;;;;;;;20.27;35.61;102030.09;5098899;28;755;-58
2021/03/30 04:35:53;;;;;;;;;;;;;;;20.27;35.91;102026.47;5116833;28;966;-60
2021/03/30 04:38:18;;;;;;;;;;;;;;;20.32;35.90;102034.78;5116213;28;1913;-59
2021/03/30 04:40:50;;;;;;;;;;;;;;;20.31;35.61;102039.50;5116401;28;823;-58
2021/03/30 04:43:15;;;;;;;;;;;;;;;20.11;36.04;102029.16;5116722;28;755;-59
2021/03/30 04:45:41;;;;;;;;;;;;;;;20.14;35.97;102033.31;5116685;28;767;-56
2021/03/30 04:48:06;;;;;;;;;;;;;;;20.33;35.62;102033.72;5116771;28;801;-53
2021/03/30 04:50:32;;;;;;;;;;;;;;;20.43;35.43;102030.16;5116514;28;1051;-57
2021/03/30 04:52:57;;;;;;;;;;;;;;;20.07;35.99;102028.03;5115986;28;1013;-54
2021/03/30 04:55:23;;;;;;;;;;;;;;;20.13;36.08;102032.50;5116733;28;843;-56
2021/03/30 04:57:48;;;;;;;;;;;;;;;20.24;35.78;102043.59;5098191;28;1909;-52
2021/03/30 05:00:17;;;;;;;;;;;;;;;20.33;35.72;102045.56;5116106;28;728;-58
2021/03/30 05:02:42;;;;;;;;;;;;;;;20.34;35.86;102049.16;5115296;28;760;-59
2021/03/30 05:05:08;;;;;;;;;;;;;;;20.25;35.77;102050.78;5116111;28;739;-59
2021/03/30 05:07:33;;;;;;;;;;;;;;;20.12;36.21;102058.44;5115624;28;946;-57
2021/03/30 05:09:59;;;;;;;;;;;;;;;20.37;35.87;102056.09;5107787;28;914;-57
2021/03/30 05:12:25;;;;;;;;;;;;;;;20.37;35.84;102058.84;5095992;28;776;-58
2021/03/30 05:14:50;;;;;;;;;;;;;;;20.26;35.71;102046.91;5095542;28;820;-54
2021/03/30 05:17:15;;;;;;;;;;;;;;;20.21;35.97;102053.25;5095705;28;1910;-52
2021/03/30 05:19:41;;;;;;;;;;;;;;;20.23;35.97;102053.81;5096128;28;780;-51
2021/03/30 05:22:06;;;;;;;;;;;;;;;20.22;36.01;102067.91;5094850;28;962;-58
2021/03/30 05:24:32;;;;;;;;;;;;;;;20.12;36.07;102058.44;5098754;28;893;-55
2021/03/30 05:26:57;;;;;;;;;;;;;;;20.15;36.17;102057.91;5098992;28;824;-57
2021/03/30 05:29:23;;;;;;;;;;;;;;;20.32;35.79;102056.91;5098548;28;827;-52
2021/03/30 05:31:48;;;;;;;;;;;;;;;20.23;35.93;102055.72;5098840;28;754;-53
2021/03/30 05:34:14;;;;;;;;;;;;;;;20.08;36.17;102048.19;5098410;28;871;-58
2021/03/30 05:36:39;;;;;;;;;;;;;;;20.20;36.02;102042.47;5079804;28;1988;-56
2021/03/30 05:39:05;;;;;;;;;;;;;;;20.29;35.77;102049.16;5080862;28;1196;-55
2021/03/30 05:41:30;;;;;;;;;;;;;;;20.26;35.70;102050.50;5099206;28;795;-55
2021/03/30 05:43:56;;;;;;;;;;;;;;;20.26;35.82;102052.41;5098576;28;819;-54
2021/03/30 05:46:21;;;;;;;;;;;;;;;20.24;35.93;102066.50;5099118;28;740;-54
2021/03/30 05:48:48;;;;;;;;;;;;;;;20.25;35.99;102061.84;5119389;28;775;-59
2021/03/30 05:51:13;;;;;;;;;;;;;;;20.36;35.84;102060.78;5118230;28;1236;-52
2021/03/30 05:53:39;;;;;;;;;;;;;;;20.33;35.72;102058.56;5105879;28;835;-57
2021/03/30 05:56:05;;;;;;;;;;;;;;;20.28;36.01;102061.28;5098806;28;743;-56
2021/03/30 05:58:31;;;;;;;;;;;;;;;20.17;36.07;102063.16;5079798;28;1995;-57
2021/03/30 06:00:57;;;;;;;;;;;;;;;20.32;35.81;102059.66;5080195;28;813;-53
2021/03/30 06:03:24;;;;;;;;;;;;;;;20.40;35.58;102061.91;5098969;28;755;-49
2021/03/30 06:05:52;;;;;;;;;;;;;;;20.40;35.70;102059.16;5098641;28;774;-57
2021/03/30 06:08:20;;;;;;;;;;;;;;;20.60;35.23;102055.66;5097691;28;895;-57
2021/03/30 06:10:45;;;;;;;;;;;;;;;20.50;35.38;102056.44;5098265;28;842;-54
2021/03/30 06:13:10;;;;;;;;;;;;;;;20.15;36.06;102046.03;5080287;28;795;-57
2021/03/30 06:15:36;;;;;;;;;;;;;;;20.28;35.88;102058.53;5098547;28;862;-56
2021/03/30 06:18:15;;;;;;;;;;;;;;;20.45;35.55;102056.41;5098291;28;1902;-57
2021/03/30 06:20:41;;;;;;;;;;;;;;;20.43;35.55;102057.78;5098115;28;743;-58
2021/03/30 06:23:06;;;;;;;;;;;;;;;20.31;35.64;102050.56;5098296;28;971;-58
2021/03/30 06:25:49;;;;;;;;;;;;;;;20.42;35.46;102040.34;5098211;28;763;-57
2021/03/30 06:28:18;;;;;;;;;;;;;;;20.39;35.72;102068.53;5098031;28;867;-59
2021/03/30 06:30:52;;;;;;;;;;;;;;;20.44;35.55;102070.47;5098408;28;814;-59
2021/03/30 06:33:19;;;;;;;;;;;;;;;20.44;35.70;102067.72;5098118;28;874;-58
2021/03/30 06:35:44;;;;;;;;;;;;;;;20.27;35.83;102062.38;5097908;28;759;-56
2021/03/30 06:38:10;;;;;;;;;;;;;;;20.29;35.82;102071.25;5097813;28;1913;-59
2021/03/30 06:40:38;;;;;;;;;;;;;;;20.35;35.69;102075.69;5098261;28;871;-58
2021/03/30 06:44:25;;;;;;;;;;;;;;;20.33;35.79;102077.91;5097823;28;791;-56
2021/03/30 06:46:02;;;;;;;;;;;;;;;20.38;35.60;102080.69;5098025;28;1599;-60
2021/03/30 06:48:28;;;;;;;;;;;;;;;20.45;35.74;102072.16;5079931;28;898;-55
2021/03/30 06:50:53;;;;;;;;;;;;;;;20.42;35.78;102081.81;5104953;28;1234;-59
2021/03/30 06:53:20;;;;;;;;;;;;;;;20.31;35.79;102083.69;5099775;28;1013;-58
2021/03/30 06:55:46;;;;;;;;;;;;;;;20.42;35.50;102078.22;5099737;28;943;-51
2021/03/30 06:58:12;;;;;;;;;;;;;;;20.42;35.63;102079.03;5118151;28;1917;-54
2021/03/30 07:00:37;;;;;;;;;;;;;;;20.51;35.54;102074.69;5118087;28;794;-59
2021/03/30 07:03:07;;;;;;;;;;;;;;;20.61;35.28;102081.38;5099967;28;925;-61
2021/03/30 07:05:42;;;;;;;;;;;;;;;20.38;35.87;102077.09;5117532;28;774;-59
2021/03/30 07:08:08;;;;;;;;;;;;;;;20.36;35.72;102077.34;5117545;28;1005;-61
2021/03/30 07:10:34;;;;;;;;;;;;;;;20.17;36.05;102076.97;5118171;28;759;-60
2021/03/30 07:13:00;;;;;;;;;;;;;;;20.32;35.81;102076.22;5117414;28;866;-61
2021/03/30 07:15:25;;;;;;;;;;;;;;;20.48;35.49;102077.13;5117912;28;822;-59
2021/03/30 07:17:54;;;;;;;;;;;;;;;20.45;35.53;102083.19;5117315;28;1980;-57
2021/03/30 07:20:20;;;;;;;;;;;;;;;20.54;35.65;102087.13;5117381;28;858;-56
2021/03/30 07:22:46;;;;;;;;;;;;;;;20.41;35.66;102077.41;5098978;28;946;-52
2021/03/30 07:25:12;;;;;;;;;;;;;;;20.26;35.99;102080.91;5097528;28;899;-53
2021/03/30 07:27:56;;;;;;;;;;;;;;;20.46;35.54;102085.69;5116946;28;883;-58
2021/03/30 07:30:22;;;;;;;;;;;;;;;20.43;35.63;102096.47;5117538;28;793;-57
2021/03/30 07:32:50;;;;;;;;;;;;;;;20.48;35.66;102083.50;5117355;28;786;-51
2021/03/30 07:35:22;;;;;;;;;;;;;;;20.37;35.73;102092.00;5098680;28;827;-53
2021/03/30 07:37:50;;;;;;;;;;;;;;;20.61;35.15;102086.88;5098331;28;1990;-58
2021/03/30 07:40:16;;;;;;;;;;;;;;;20.65;35.21;102093.50;5116967;28;853;-58
2021/03/30 07:42:42;;;;;;;;;;;;;;;20.64;35.20;102089.94;5098989;28;778;-51
2021/03/30 07:45:09;;;;;;;;;;;;;;;20.61;35.37;102092.41;5098445;28;936;-65
2021/03/30 07:47:34;;;;;;;;;;;;;;;20.66;35.18;102095.19;5098611;28;902;-58
2021/03/30 07:50:00;;;;;;;;;;;;;;;20.66;35.33;102097.94;5098011;28;1565;-59
2021/03/30 07:52:28;;;;;;;;;;;;;;;20.73;35.23;102098.56;5116535;28;1009;-51
2021/03/30 07:55:12;;;;;;;;;;;;;;;20.71;35.25;102103.53;5116636;28;827;-55
2021/03/30 07:57:56;;;;;;;;;;;;;;;20.75;34.96;102099.13;5116682;28;1980;-53
2021/03/30 08:00:30;;;;;;;;;;;;;;;20.74;34.92;102097.47;5117237;28;786;-60
2021/03/30 08:02:56;;;;;;;;;;;;;;;20.83;34.79;102093.09;5099057;28;1086;-59
2021/03/30 08:05:22;;;;;;;;;;;;;;;20.86;34.78;102091.72;5116602;28;791;-57
2021/03/30 08:07:52;;;;;;;;;;;;;;;20.74;35.17;102093.88;5098437;28;1222;-55
2021/03/30 08:10:24;;;;;;;;;;;;;;;20.67;35.09;102096.84;5117058;28;770;-57
2021/03/30 08:12:50;;;;;;;;;;;;;;;20.62;35.28;102094.91;5116447;28;751;-56
2021/03/30 08:15:34;;;;;;;;;;;;;;;20.52;35.44;102101.22;5116969;28;826;-55
2021/03/30 08:17:59;;;;;;;;;;;;;;;20.36;35.86;102104.97;5116875;28;1971;-56
2021/03/30 08:20:26;;;;;;;;;;;;;;;20.52;35.57;102092.94;5115818;28;839;-53
2021/03/30 08:23:10;;;;;;;;;;;;;;;20.72;35.30;102101.59;5116637;28;946;-55
2021/03/30 08:25:36;;;;;;;;;;;;;;;20.75;35.29;102101.91;5114431;28;839;-48
2021/03/30 08:28:01;;;;;;;;;;;;;;;20.74;35.02;102100.22;5115928;28;874;-58
2021/03/30 08:30:27;;;;;;;;;;;;;;;20.69;35.25;102100.19;5116785;28;858;-57
2021/03/30 08:32:53;;;;;;;;;;;;;;;20.69;35.29;102111.25;5116801;28;747;-58
2021/03/30 08:35:27;;;;;;;;;;;;;;;20.73;35.18;102101.31;5098558;28;755;-58
2021/03/30 08:37:53;;;;;;;;;;;;;;;20.70;35.23;102101.06;5116265;28;1909;-56
2021/03/30 08:40:41;;;;;;;;;;;;;;;20.65;35.36;102110.09;5116487;28;684;-57
2021/03/30 08:43:13;;;;;;;;;;;;;;;20.92;34.68;102098.09;5103564;28;1665;-52
2021/03/30 08:45:53;;;;;;;;;;;;;;;20.98;34.79;102097.00;5116667;28;727;-66
2021/03/30 08:48:19;;;;;;;;;;;;;;;20.89;34.71;102093.94;5116153;28;810;-56
2021/03/30 08:50:44;;;;;;;;;;;;;;;20.88;35.15;102094.22;5098134;28;1495;-55
2021/03/30 08:53:18;;;;;;;;;;;;;;;20.89;34.96;102093.94;5098407;28;989;-50
2021/03/30 08:55:43;;;;;;;;;;;;;;;20.95;35.02;102103.09;5116177;28;843;-55
2021/03/30 08:58:09;;;;;;;;;;;;;;;20.86;35.16;102105.56;5119732;28;1917;-54
2021/03/30 09:00:34;;;;;;;;;;;;;;;21.04;34.82;102101.44;5101540;28;975;-58
2021/03/30 09:03:00;;;;;;;;;;;;;;;20.83;35.14;102101.38;5119886;28;863;-58
2021/03/30 09:05:26;;;;;;;;;;;;;;;21.05;34.53;102086.50;5121046;28;767;-57
2021/03/30 09:07:51;;;;;;;;;;;;;;;21.03;34.86;102083.22;5119570;28;961;-55
2021/03/30 09:10:17;;;;;;;;;;;;;;;20.89;34.92;102082.88;5119649;28;885;-55
2021/03/30 09:12:43;;;;;;;;;;;;;;;21.03;34.60;102094.25;5117718;28;870;-50
2021/03/30 09:15:09;;;;;;;;;;;;;;;21.05;34.64;102092.03;5119375;28;887;-51
2021/03/30 09:17:35;;;;;;;;;;;;;;;20.99;34.66;102090.38;5119624;28;1913;-53
2021/03/30 09:20:02;;;;;;;;;;;;;;;20.65;35.36;102094.38;5120336;28;818;-52
2021/03/30 09:22:44;;;;;;;;;;;;;;;20.83;35.29;102090.34;5119646;28;969;-51
2021/03/30 09:27:53;;;;;;;;;;;;;;;20.68;35.54;102080.03;5120291;28;758;-50
2021/03/30 09:30:20;;;;;;;;;;;;;;;20.53;35.54;102079.94;5119227;28;812;-50
2021/03/30 09:32:46;;;;;;;;;;;;;;;20.40;35.79;102069.34;5100882;28;907;-49
2021/03/30 09:35:12;;;;;;;;;;;;;;;20.56;35.57;102081.34;5119260;28;806;-51
2021/03/30 09:37:43;;;;;;;;;;;;;;;20.70;35.52;102068.69;5118745;28;1975;-46
2021/03/30 09:40:09;;;;;;;;;;;;;;;20.66;35.48;102067.53;5119112;28;929;-53
2021/03/30 09:42:35;;;;;;;;;;;;;;;20.61;35.69;102051.78;5119305;28;849;-49
2021/03/30 09:45:00;;;;;;;;;;;;;;;20.64;35.30;102065.06;5119347;28;770;-49
2021/03/30 09:47:27;;;;;;;;;;;;;;;20.67;35.58;102063.69;5119307;28;783;-50
2021/03/30 09:49:52;;;;;;;;;;;;;;;20.63;35.36;102062.56;5119100;28;838;-51
2021/03/30 09:52:19;;;;;;;;;;;;;;;20.66;35.35;102056.50;5100560;28;1209;-50
2021/03/30 09:54:44;;;;;;;;;;;;;;;20.52;35.72;102061.69;5119241;28;858;-56
2021/03/30 09:57:12;;;;;;;;;;;;;;;20.42;35.75;102045.88;5119506;28;1922;-54
2021/03/30 09:59:38;;;;;;;;;;;;;;;20.52;35.77;102051.47;5100413;28;864;-54
2021/03/30 10:02:03;;;;;;;;;;;;;;;20.52;35.48;102051.47;5118902;28;802;-54
2021/03/30 10:04:31;;;;;;;;;;;;;;;20.55;35.47;102057.56;5119268;28;847;-53
2021/03/30 10:06:57;;;;;;;;;;;;;;;20.42;35.75;102054.19;5118576;28;966;-48
2021/03/30 10:09:22;;;;;;;;;;;;;;;20.55;35.42;102055.59;5118047;28;870;-51
2021/03/30 10:11:50;;;;;;;;;;;;;;;20.60;35.68;102046.53;5118889;28;795;-54
2021/03/30 10:14:16;;;;;;;;;;;;;;;20.66;35.22;102050.97;5119175;28;838;-51
2021/03/30 10:16:42;;;;;;;;;;;;;;;20.43;35.62;102047.56;5118598;28;1909;-52
2021/03/30 10:19:07;;;;;;;;;;;;;;;20.47;35.80;102054.22;5100546;28;800;-53
2021/03/30 10:21:36;;;;;;;;;;;;;;;20.63;35.35;102062.56;5100160;28;1339;-50
2021/03/30 10:24:08;;;;;;;;;;;;;;;20.52;35.53;102057.00;5118565;28;847;-54
2021/03/30 10:26:33;;;;;;;;;;;;;;;20.46;35.57;102063.59;5118523;28;1510;-50
2021/03/30 10:29:33;;;;;;;;;;;;;;;20.44;35.87;102049.22;5118635;28;783;-50
2021/03/30 10:31:58;;;;;;;;;;;;;;;20.56;35.43;102049.00;5114715;28;1782;-48
2021/03/30 10:34:23;;;;;;;;;;;;;;;20.47;35.52;102054.22;5118376;28;759;-49
2021/03/30 10:36:49;;;;;;;;;;;;;;;20.42;35.70;102045.06;5118052;28;1983;-51
2021/03/30 10:39:14;;;;;;;;;;;;;;;20.54;35.38;102042.06;5118606;28;762;-56
2021/03/30 10:41:41;;;;;;;;;;;;;;;20.39;35.79;102045.63;5119025;28;798;-56
2021/03/30 10:44:07;;;;;;;;;;;;;;;20.55;35.43;102049.25;5118807;28;755;-56
2021/03/30 10:46:46;;;;;;;;;;;;;;;20.48;35.45;102050.34;5118255;28;751;-57
2021/03/30 10:49:14;;;;;;;;;;;;;;;20.49;35.41;102040.94;5118285;28;759;-55
2021/03/30 10:51:41;;;;;;;;;;;;;;;20.48;35.52;102053.13;5117317;28;1202;-49
2021/03/30 10:54:09;;;;;;;;;;;;;;;20.44;35.74;102048.38;5117357;28;783;-61
2021/03/30 10:56:35;;;;;;;;;;;;;;;20.42;35.72;102036.78;5120501;27;1918;-57
2021/03/30 10:59:06;;;;;;;;;;;;;;;20.55;35.38;102038.22;5118013;28;865;-57
2021/03/30 11:01:31;;;;;;;;;;;;;;;20.65;35.03;102043.75;5117748;28;771;-56
2021/03/30 11:03:57;;;;;;;;;;;;;;;20.70;35.04;102040.25;5117078;28;805;-57
2021/03/30 11:06:22;;;;;;;;;;;;;;;20.73;34.84;102039.69;5116745;28;897;-48
2021/03/30 11:08:48;;;;;;;;;;;;;;;20.62;35.08;102041.56;5099088;28;1418;-51
2021/03/30 11:11:13;;;;;;;;;;;;;;;20.65;35.07;102033.56;5117692;28;842;-55
2021/03/30 11:13:39;;;;;;;;;;;;;;;20.90;34.79;102028.41;5115812;28;831;-48
2021/03/30 11:16:05;;;;;;;;;;;;;;;20.78;34.87;102035.00;5116901;28;881;-48
2021/03/30 11:18:31;;;;;;;;;;;;;;;20.78;34.67;102040.53;5117231;28;2000;-50
2021/03/30 11:20:56;;;;;;;;;;;;;;;20.76;35.05;102037.22;5116327;28;977;-55
2021/03/30 11:23:22;;;;;;;;;;;;;;;20.58;35.33;102038.50;5117276;28;962;-58
2021/03/30 11:25:47;;;;;;;;;;;;;;;20.63;35.06;102023.88;5117286;28;874;-56
2021/03/30 11:28:14;;;;;;;;;;;;;;;20.60;35.24;102029.94;5117503;28;815;-55
2021/03/30 11:30:51;;;;;;;;;;;;;;;20.61;35.00;102024.16;5116942;28;802;-50
2021/03/30 11:38:14;;;;;;;;;;;;;;;20.61;35.11;102031.63;5116597;28;1949;-48
2021/03/30 11:40:39;;;;;;;;;;;;;;;20.67;35.09;102025.84;5117891;28;826;-49
2021/03/30 11:43:05;;;;;;;;;;;;;;;20.40;35.51;102020.47;5117092;28;850;-56
2021/03/30 11:45:30;;;;;;;;;;;;;;;20.40;35.52;102019.63;5117008;28;815;-56
2021/03/30 11:47:56;;;;;;;;;;;;;;;20.39;35.39;102048.38;5117810;28;743;-52
2021/03/30 11:50:21;;;;;;;;;;;;;;;20.43;35.49;102036.50;5116986;28;1164;-52
2021/03/30 11:52:47;;;;;;;;;;;;;;;20.45;35.22;102033.47;5116458;28;1008;-56
2021/03/30 11:55:13;;;;;;;;;;;;;;;20.51;35.15;102038.75;5116974;28;810;-58
2021/03/30 11:57:39;;;;;;;;;;;;;;;20.51;35.14;102037.94;5116346;28;1976;-52
2021/03/30 12:00:05;;;;;;;;;;;;;;;20.73;34.80;102034.97;5116705;28;799;-57
2021/03/30 12:02:37;;;;;;;;;;;;;;;20.71;35.04;102023.38;5116959;28;639;-57
2021/03/30 12:05:03;;;;;;;;;;;;;;;20.73;35.03;102020.34;5116479;28;889;-57
2021/03/30 12:07:29;;;;;;;;;;;;;;;20.77;34.75;102027.00;5116584;28;950;-55
2021/03/30 12:09:55;;;;;;;;;;;;;;;20.91;34.66;102014.31;5116329;28;751;-58
2021/03/30 12:12:20;;;;;;;;;;;;;;;20.85;34.52;102016.22;5117232;28;797;-59
2021/03/30 12:14:46;;;;;;;;;;;;;;;20.94;34.37;102012.94;5116877;28;886;-62
2021/03/30 12:17:11;;;;;;;;;;;;;;;20.93;34.44;102017.66;5116619;28;1972;-57
2021/03/30 12:19:37;;;;;;;;;;;;;;;20.94;34.43;102008.22;5116513;28;742;-58
2021/03/30 12:22:02;;;;;;;;;;;;;;;20.85;34.67;102016.22;5097758;28;989;-58
2021/03/30 12:24:28;;;;;;;;;;;;;;;20.87;34.51;102012.38;5116053;28;827;-57
2021/03/30 12:26:54;;;;;;;;;;;;;;;20.81;34.80;102004.06;5116678;28;751;-57
2021/03/30 12:29:19;;;;;;;;;;;;;;;20.95;34.75;101998.00;5116391;28;886;-57
2021/03/30 12:31:44;;;;;;;;;;;;;;;20.75;34.83;102005.16;5117540;28;827;-59
2021/03/30 12:34:12;;;;;;;;;;;;;;;20.48;35.30;102011.66;5120740;28;763;-56
2021/03/30 12:36:37;;;;;;;;;;;;;;;20.41;35.56;102011.09;5120287;28;1942;-58
2021/03/30 12:39:03;;;;;;;;;;;;;;;20.48;35.41;102000.63;5120175;28;759;-55
2021/03/30 12:41:30;;;;;;;;;;;;;;;20.47;35.33;102009.19;5120789;28;806;-58
2021/03/30 12:43:55;;;;;;;;;;;;;;;20.54;35.34;102008.91;5120167;28;783;-55
2021/03/30 12:46:21;;;;;;;;;;;;;;;20.67;34.98;102003.75;5120260;28;838;-56
2021/03/30 12:48:46;;;;;;;;;;;;;;;20.86;34.67;102011.56;5120854;28;826;-55
2021/03/30 12:51:13;;;;;;;;;;;;;;;20.78;34.64;101999.06;5119682;28;1126;-58
2021/03/30 12:53:38;;;;;;;;;;;;;;;20.83;34.60;102001.88;5120585;28;774;-55
2021/03/30 12:56:04;;;;;;;;;;;;;;;20.87;34.57;101993.03;5120640;28;774;-59
2021/03/30 12:58:29;;;;;;;;;;;;;;;20.73;34.88;101979.72;5102041;28;1984;-60
2021/03/30 13:00:55;;;;;;;;;;;;;;;20.80;34.70;101983.06;5120137;28;730;-60
2021/03/30 13:03:20;;;;;;;;;;;;;;;20.84;34.85;101999.91;5120467;28;814;-58